createdAt,value
2024-01-05T00:11:39.940Z,5883.57644
2024-01-05T00:26:42.195Z,5871.36985
2024-01-05T00:41:44.355Z,6457.5019
2024-01-05T00:56:46.381Z,6770.33541
2024-01-05T01:11:48.788Z,6974.73862
2024-01-05T01:26:51.078Z,6974.73862
2024-01-05T01:41:53.107Z,6782.50497
2024-01-05T01:56:55.283Z,5592.88592
2024-01-05T02:11:57.441Z,5117.54122
2024-01-05T02:26:59.533Z,4772.34453
2024-01-05T02:42:01.626Z,4347.15873
2024-01-05T02:57:03.728Z,4152.60505
2024-01-05T03:12:05.898Z,4069.0156
2024-01-05T03:27:07.987Z,4000.0005
2024-01-05T03:42:10.220Z,3845.10919
2024-01-05T03:57:12.307Z,3646.90771
2024-01-05T04:12:14.335Z,3417.87489
2024-01-05T04:27:16.493Z,3341.20474
2024-01-05T04:42:18.595Z,3201.35795
2024-01-05T04:57:20.578Z,3149.69442
2024-01-05T05:12:22.612Z,3190.53036
2024-01-05T05:27:24.633Z,3097.97531
2024-01-05T05:42:26.648Z,3111.60027
2024-01-05T05:57:28.816Z,3153.20383
2024-01-05T06:12:31.018Z,3101.37035
2024-01-05T06:27:38.821Z,3084.46915
2024-01-05T06:42:41.664Z,3156.72107
2024-01-05T06:57:43.816Z,3214.08339
2024-01-05T07:12:45.839Z,3057.80708
2024-01-05T07:27:47.927Z,2827.17335
2024-01-05T07:42:49.933Z,2679.92476
2024-01-05T07:57:52.026Z,2608.29545
2024-01-05T08:12:54.106Z,2561.08649
2024-01-05T08:27:56.269Z,2504.42529
2024-01-05T08:42:58.422Z,2471.61623
2024-01-05T08:58:00.427Z,2482.45665
2024-01-05T09:13:02.520Z,2400.33978
2024-01-05T09:28:04.693Z,2327.30314
2024-01-05T09:43:06.777Z,2256.77882
2024-01-05T09:58:09.010Z,2214.398
2024-01-05T10:13:11.036Z,2190.40298
2024-01-05T10:28:13.122Z,2139.07836
2024-01-05T10:43:15.200Z,2047.75738
2024-01-05T10:58:17.279Z,2017.1067
2024-01-05T11:13:19.328Z,1861.8426
2024-01-05T11:28:21.352Z,1864.29562
2024-01-05T11:43:23.620Z,1860.61851
2024-01-05T11:58:25.818Z,1832.90205
2024-01-05T12:13:28.316Z,1828.16587
2024-01-05T12:28:30.355Z,1824.62977
2024-01-05T12:43:32.518Z,1843.64871
2024-01-05T12:58:36.177Z,1825.80695
2024-01-05T13:13:38.214Z,1804.84743
2024-01-05T13:28:40.335Z,1815.26669
2024-01-05T13:43:42.505Z,1794.5471
2024-01-05T13:58:44.980Z,1790.00682
2024-01-05T14:13:47.043Z,1844.85056
2024-01-05T14:28:49.027Z,1881.64943
2024-01-05T14:43:51.161Z,1882.90136
2024-01-05T14:58:53.259Z,1876.65832
2024-01-05T15:13:55.430Z,1852.09474
2024-01-05T15:28:57.515Z,1842.44841
2024-01-05T15:43:59.527Z,1849.6737
2024-01-05T15:59:01.549Z,1823.4541
2024-01-05T16:14:03.570Z,1842.44841
2024-01-05T16:29:05.605Z,1815.26669
2024-01-05T16:44:07.650Z,1825.80695
2024-01-05T16:59:09.666Z,1825.80695
2024-01-05T17:14:11.643Z,1864.29562
2024-01-05T17:29:13.609Z,1860.61851
2024-01-05T17:44:15.684Z,1899.32936
2024-01-05T17:59:17.716Z,2469.4595
2024-01-05T18:14:19.741Z,3215.90958
2024-01-05T18:29:28.249Z,3778.37166
2024-01-05T18:44:31.851Z,4310.73927
2024-01-05T18:59:33.912Z,4875.10819
2024-01-05T19:14:35.879Z,5473.88836
2024-01-05T19:29:39.567Z,6450.14292
2024-01-05T19:44:41.821Z,6778.44359
2024-01-05T19:59:43.823Z,7418.08699
2024-01-05T20:14:45.822Z,8068.42531
2024-01-05T20:29:49.648Z,8802.48885
2024-01-05T20:44:51.813Z,9121.6766
2024-01-05T20:59:53.730Z,9642.24927
2024-01-05T21:14:55.674Z,10300.27354
2024-01-05T21:29:57.755Z,11000.97241
2024-01-05T21:44:59.772Z,11706.30879
2024-01-05T22:00:01.774Z,12132.90524
2024-01-05T22:15:04.051Z,12398.6863
2024-01-05T22:30:06.101Z,12535.99179
2024-01-05T22:45:08.192Z,12535.99179
2024-01-05T23:00:10.318Z,12535.99179
2024-01-05T23:15:12.433Z,12535.99179
2024-01-05T23:30:14.609Z,12535.99179
2024-01-05T23:45:16.755Z,12535.99179
